Time;durP1;ratioP1;P1;durP2;ratioP2;P2;SDS_P1;SDS_P2;PMS_P1;PMS_P2;Temp;Humidity;BMP_temperature;BMP_pressure;BME280_temperature;BME280_humidity;BME280_pressure;Samples;Min_cycle;Max_cycle;Signal;HPM_P1;HPM_P2
2021/06/18 00:00:29;;;;;;;9.32;6.93;;;;;;;;;;4361233;32;20071;-78
2021/06/18 00:02:56;;;;;;;7.35;6.65;;;;;;;;;;4353249;32;20063;-78
2021/06/18 00:05:22;;;;;;;8.52;6.65;;;;;;;;;;4358423;32;20065;-78
2021/06/18 00:07:49;;;;;;;7.93;6.93;;;;;;;;;;4355319;32;20078;-78
2021/06/18 00:10:16;;;;;;;7.87;7.03;;;;;;;;;;4362554;32;20051;-78
2021/06/18 00:12:42;;;;;;;7.10;6.00;;;;;;;;;;4354768;32;20058;-79
2021/06/18 00:15:10;;;;;;;7.28;6.57;;;;;;;;;;4355101;32;20069;-77
2021/06/18 00:17:36;;;;;;;7.72;6.93;;;;;;;;;;4353890;32;20088;-88
2021/06/18 00:20:04;;;;;;;9.15;7.05;;;;;;;;;;4366632;32;20050;-78
2021/06/18 00:22:30;;;;;;;8.60;7.05;;;;;;;;;;4368262;32;20075;-78
2021/06/18 00:24:57;;;;;;;7.82;7.10;;;;;;;;;;4357920;32;20035;-87
2021/06/18 00:27:23;;;;;;;7.95;7.10;;;;;;;;;;4361976;32;20043;-78
2021/06/18 00:29:50;;;;;;;8.98;7.25;;;;;;;;;;4351851;32;20083;-78
2021/06/18 00:32:16;;;;;;;8.77;7.30;;;;;;;;;;4356306;32;20036;-78
2021/06/18 00:34:42;;;;;;;9.15;6.90;;;;;;;;;;4364733;32;20078;-78
2021/06/18 00:37:08;;;;;;;8.23;7.20;;;;;;;;;;4352550;33;20114;-78
2021/06/18 00:39:35;;;;;;;8.48;7.15;;;;;;;;;;4359503;32;20111;-78
2021/06/18 00:42:01;;;;;;;8.73;7.45;;;;;;;;;;4361400;32;20043;-87
2021/06/18 00:44:27;;;;;;;7.53;6.68;;;;;;;;;;4364554;32;20141;-78
2021/06/18 00:46:54;;;;;;;8.23;7.00;;;;;;;;;;4358006;32;20446;-93
2021/06/18 00:49:20;;;;;;;10.18;6.95;;;;;;;;;;4363439;32;20078;-78
2021/06/18 00:51:46;;;;;;;8.85;6.50;;;;;;;;;;4362486;32;20412;-79
2021/06/18 00:54:13;;;;;;;7.75;6.65;;;;;;;;;;4361578;32;20053;-80
2021/06/18 00:56:40;;;;;;;8.93;6.60;;;;;;;;;;4361457;32;20189;-78
2021/06/18 00:59:06;;;;;;;8.93;6.82;;;;;;;;;;4360962;32;20089;-93
2021/06/18 01:01:32;;;;;;;7.15;6.45;;;;;;;;;;4363705;32;20099;-83
2021/06/18 01:03:59;;;;;;;8.00;7.20;;;;;;;;;;4362390;32;20497;-79
2021/06/18 01:06:31;;;;;;;9.05;6.78;;;;;;;;;;4354942;32;20093;-80
2021/06/18 01:09:02;;;;;;;8.15;6.37;;;;;;;;;;4364695;32;20421;-88
2021/06/18 01:11:31;;;;;;;8.63;6.93;;;;;;;;;;4359673;32;20047;-78
2021/06/18 01:14:00;;;;;;;7.53;6.82;;;;;;;;;;4357633;32;20143;-78
2021/06/18 01:16:26;;;;;;;8.73;6.37;;;;;;;;;;4364977;32;20035;-79
2021/06/18 01:18:59;;;;;;;10.75;6.65;;;;;;;;;;4362710;32;20218;-79
2021/06/18 01:21:28;;;;;;;6.18;5.57;;;;;;;;;;4356782;32;20508;-86
2021/06/18 01:23:54;;;;;;;7.55;6.50;;;;;;;;;;4360195;32;20031;-77
2021/06/18 01:26:24;;;;;;;6.70;5.40;;;;;;;;;;4359373;32;20074;-77
2021/06/18 01:28:52;;;;;;;8.65;5.87;;;;;;;;;;4367836;32;20100;-77
2021/06/18 01:31:22;;;;;;;8.55;6.18;;;;;;;;;;4361557;32;20145;-78
2021/06/18 01:33:51;;;;;;;8.65;6.32;;;;;;;;;;4355982;32;20654;-78
2021/06/18 01:36:19;;;;;;;7.62;6.80;;;;;;;;;;4367929;32;20128;-78
2021/06/18 01:38:46;;;;;;;6.97;6.30;;;;;;;;;;4370263;32;20038;-77
2021/06/18 01:41:14;;;;;;;7.25;6.55;;;;;;;;;;4366184;32;20095;-78
2021/06/18 01:43:42;;;;;;;8.02;6.18;;;;;;;;;;4362395;32;20035;-78
2021/06/18 01:46:11;;;;;;;6.80;6.03;;;;;;;;;;4365439;32;20369;-80
2021/06/18 01:48:37;;;;;;;7.90;6.10;;;;;;;;;;4364100;32;20085;-91
2021/06/18 01:51:04;;;;;;;8.30;5.65;;;;;;;;;;4370234;32;20126;-78
2021/06/18 01:53:31;;;;;;;7.55;6.05;;;;;;;;;;4364314;32;20436;-79
2021/06/18 01:55:58;;;;;;;6.12;5.53;;;;;;;;;;4366114;32;20034;-81
2021/06/18 01:58:25;;;;;;;6.53;5.78;;;;;;;;;;4369589;32;20443;-78
2021/06/18 02:00:53;;;;;;;6.15;5.55;;;;;;;;;;4368204;32;20059;-78
2021/06/18 02:03:22;;;;;;;5.50;4.90;;;;;;;;;;4366832;32;20042;-80
2021/06/18 02:05:50;;;;;;;6.85;6.12;;;;;;;;;;4368910;32;20046;-78
2021/06/18 02:08:16;;;;;;;5.70;5.20;;;;;;;;;;4368764;32;20447;-78
2021/06/18 02:10:43;;;;;;;6.12;5.57;;;;;;;;;;4356673;32;20058;-78
2021/06/18 02:13:10;;;;;;;6.87;5.82;;;;;;;;;;4365549;32;20077;-80
2021/06/18 02:15:37;;;;;;;7.22;5.45;;;;;;;;;;4365742;32;20118;-79
2021/06/18 02:18:05;;;;;;;6.28;5.68;;;;;;;;;;4370275;32;20475;-85
2021/06/18 02:20:31;;;;;;;6.22;5.28;;;;;;;;;;4359674;32;20066;-78
2021/06/18 02:22:58;;;;;;;7.75;5.70;;;;;;;;;;4355385;32;20047;-78
2021/06/18 02:25:24;;;;;;;6.22;5.20;;;;;;;;;;4366550;32;20111;-79
2021/06/18 02:27:51;;;;;;;6.45;5.57;;;;;;;;;;4365232;32;20043;-78
2021/06/18 02:30:17;;;;;;;6.50;5.35;;;;;;;;;;4364859;32;20105;-78
2021/06/18 02:32:44;;;;;;;5.75;5.18;;;;;;;;;;4369562;32;20488;-87
2021/06/18 02:35:11;;;;;;;5.70;5.20;;;;;;;;;;4372273;32;20073;-78
2021/06/18 02:37:37;;;;;;;5.82;4.82;;;;;;;;;;4366939;32;20668;-78
2021/06/18 02:40:05;;;;;;;4.95;4.45;;;;;;;;;;4362060;32;20043;-78
2021/06/18 02:42:31;;;;;;;5.45;4.93;;;;;;;;;;4364853;32;20176;-78
2021/06/18 02:44:57;;;;;;;6.37;4.93;;;;;;;;;;4361061;32;20043;-82
2021/06/18 02:47:42;;;;;;;5.85;5.25;;;;;;;;;;4365580;32;20607;-78
2021/06/18 02:50:12;;;;;;;7.00;4.97;;;;;;;;;;4363936;32;20085;-88
2021/06/18 02:52:42;;;;;;;5.57;5.07;;;;;;;;;;4360906;32;20062;-92
2021/06/18 02:55:18;;;;;;;5.12;4.70;;;;;;;;;;4360334;32;20566;-79
2021/06/18 02:57:55;;;;;;;6.55;5.45;;;;;;;;;;4361933;32;20054;-77
2021/06/18 03:00:22;;;;;;;7.03;5.15;;;;;;;;;;4362565;32;20050;-77
2021/06/18 03:02:59;;;;;;;5.43;4.93;;;;;;;;;;4361080;32;20039;-79
2021/06/18 03:05:26;;;;;;;6.90;5.47;;;;;;;;;;4354829;32;20108;-85
2021/06/18 03:07:52;;;;;;;6.10;5.45;;;;;;;;;;4359080;32;20377;-79
2021/06/18 03:10:24;;;;;;;8.55;5.20;;;;;;;;;;4366896;32;20428;-78
2021/06/18 03:12:50;;;;;;;;;;;;;;;;;;4366821;32;20580;-78
2021/06/18 03:15:19;;;;;;;5.87;5.28;;;;;;;;;;4366586;32;19946;-79
2021/06/18 03:17:45;;;;;;;7.05;4.85;;;;;;;;;;4365600;32;20073;-78
2021/06/18 03:20:18;;;;;;;6.15;5.55;;;;;;;;;;4367178;32;20082;-78
2021/06/18 03:22:46;;;;;;;6.47;5.07;;;;;;;;;;4349873;32;20031;-78
2021/06/18 03:25:12;;;;;;;7.05;5.05;;;;;;;;;;4366746;32;20043;-78
2021/06/18 03:27:39;;;;;;;6.00;5.40;;;;;;;;;;4366993;32;20616;-78
2021/06/18 03:30:06;;;;;;;6.03;5.50;;;;;;;;;;4349893;32;20047;-78
2021/06/18 03:32:34;;;;;;;6.78;5.47;;;;;;;;;;4362437;32;20106;-78
2021/06/18 03:35:00;;;;;;;6.10;5.43;;;;;;;;;;4367199;32;20154;-78
2021/06/18 03:37:27;;;;;;;6.60;5.18;;;;;;;;;;4366862;32;20039;-78
2021/06/18 03:39:53;;;;;;;5.62;5.10;;;;;;;;;;4365616;32;20183;-78
2021/06/18 03:42:19;;;;;;;6.15;5.10;;;;;;;;;;4364909;32;20431;-77
2021/06/18 03:44:46;;;;;;;8.43;5.43;;;;;;;;;;4367147;32;20047;-90
2021/06/18 03:47:13;;;;;;;7.85;5.82;;;;;;;;;;4367191;32;20072;-80
2021/06/18 03:49:42;;;;;;;6.40;5.70;;;;;;;;;;4366402;32;20069;-79
2021/06/18 03:52:08;;;;;;;6.37;5.70;;;;;;;;;;4365852;32;20039;-79
2021/06/18 03:54:34;;;;;;;6.12;5.40;;;;;;;;;;4364911;32;20039;-90
2021/06/18 03:57:01;;;;;;;7.18;6.45;;;;;;;;;;4367384;32;20078;-78
2021/06/18 03:59:27;;;;;;;6.95;5.78;;;;;;;;;;4366309;32;20069;-79
2021/06/18 04:01:55;;;;;;;9.63;6.03;;;;;;;;;;4349368;32;20071;-78
2021/06/18 04:04:23;;;;;;;8.45;6.00;;;;;;;;;;4366086;32;20047;-77
2021/06/18 04:06:49;;;;;;;6.00;5.47;;;;;;;;;;4365844;32;20069;-78
2021/06/18 04:09:16;;;;;;;10.05;6.12;;;;;;;;;;4367093;32;20066;-80
2021/06/18 04:11:44;;;;;;;6.70;6.00;;;;;;;;;;4366262;32;20073;-81
2021/06/18 04:14:11;;;;;;;6.15;5.55;;;;;;;;;;4349085;32;20071;-78
2021/06/18 04:16:38;;;;;;;6.47;5.18;;;;;;;;;;4359478;32;20145;-78
2021/06/18 04:19:06;;;;;;;6.55;5.68;;;;;;;;;;4366298;32;20055;-78
2021/06/18 04:21:32;;;;;;;6.57;5.65;;;;;;;;;;4348244;32;20834;-78
2021/06/18 04:23:59;;;;;;;6.28;5.18;;;;;;;;;;4360417;32;20058;-80
2021/06/18 04:26:25;;;;;;;5.87;5.37;;;;;;;;;;4365959;32;20077;-77
2021/06/18 04:28:51;;;;;;;7.53;5.55;;;;;;;;;;4366833;32;20069;-88
2021/06/18 04:31:18;;;;;;;5.78;5.10;;;;;;;;;;4348223;33;20444;-78
2021/06/18 04:33:44;;;;;;;6.20;5.28;;;;;;;;;;4360141;32;20051;-94
2021/06/18 04:36:10;;;;;;;8.45;5.80;;;;;;;;;;4349668;32;20149;-78
2021/06/18 04:38:39;;;;;;;7.50;6.25;;;;;;;;;;4349346;33;20126;-78
2021/06/18 04:41:06;;;;;;;8.70;6.18;;;;;;;;;;4346859;32;20039;-78
2021/06/18 04:43:32;;;;;;;8.05;5.55;;;;;;;;;;4351195;32;20039;-78
2021/06/18 04:45:58;;;;;;;6.25;5.60;;;;;;;;;;4366198;32;20058;-78
2021/06/18 04:48:27;;;;;;;9.38;6.12;;;;;;;;;;4365283;32;20038;-78
2021/06/18 04:50:54;;;;;;;6.30;5.70;;;;;;;;;;4364948;32;20518;-78
2021/06/18 04:53:20;;;;;;;8.10;6.70;;;;;;;;;;4365056;32;20088;-90
2021/06/18 04:55:46;;;;;;;13.43;6.93;;;;;;;;;;4352009;32;20102;-78
2021/06/18 04:58:13;;;;;;;8.43;6.18;;;;;;;;;;4359317;32;20675;-78
2021/06/18 05:00:39;;;;;;;9.52;5.78;;;;;;;;;;4367583;32;20065;-78
2021/06/18 05:03:05;;;;;;;8.85;5.90;;;;;;;;;;4368206;32;20093;-78
2021/06/18 05:05:32;;;;;;;8.02;4.93;;;;;;;;;;4367983;32;20111;-78
2021/06/18 05:07:58;;;;;;;5.93;5.37;;;;;;;;;;4369466;32;20038;-76
2021/06/18 05:10:25;;;;;;;9.98;5.57;;;;;;;;;;4367457;32;20032;-78
2021/06/18 05:12:52;;;;;;;6.22;5.25;;;;;;;;;;4367471;32;20043;-78
2021/06/18 05:15:18;;;;;;;7.68;5.80;;;;;;;;;;4368725;32;20038;-78
2021/06/18 05:17:44;;;;;;;8.43;6.07;;;;;;;;;;4352258;32;20083;-81
2021/06/18 05:20:12;;;;;;;7.05;5.87;;;;;;;;;;4361227;32;20149;-78
2021/06/18 05:22:38;;;;;;;11.02;6.72;;;;;;;;;;4366785;32;20100;-78
2021/06/18 05:25:05;;;;;;;7.15;6.45;;;;;;;;;;4368177;32;20137;-78
2021/06/18 05:27:31;;;;;;;7.97;6.62;;;;;;;;;;4367700;32;20078;-80
2021/06/18 05:29:57;;;;;;;7.50;6.00;;;;;;;;;;4367825;32;20430;-77
2021/06/18 05:32:23;;;;;;;8.68;5.65;;;;;;;;;;4367107;32;20104;-77
2021/06/18 05:34:50;;;;;;;9.70;6.18;;;;;;;;;;4367501;32;20042;-78
2021/06/18 05:37:16;;;;;;;7.90;5.87;;;;;;;;;;4368029;32;20591;-77
2021/06/18 05:39:42;;;;;;;8.02;6.35;;;;;;;;;;4367300;32;20063;-78
2021/06/18 05:42:09;;;;;;;8.40;6.57;;;;;;;;;;4367269;32;20043;-78
2021/06/18 05:44:35;;;;;;;7.62;6.60;;;;;;;;;;4367474;32;20034;-78
2021/06/18 05:47:01;;;;;;;11.40;7.05;;;;;;;;;;4365558;32;20035;-77
2021/06/18 05:49:28;;;;;;;15.57;6.95;;;;;;;;;;4367756;32;20471;-77
2021/06/18 05:51:54;;;;;;;8.40;6.35;;;;;;;;;;4366556;32;20065;-77
2021/06/18 05:54:20;;;;;;;10.68;7.30;;;;;;;;;;4366669;32;20043;-76
2021/06/18 05:56:46;;;;;;;10.85;7.37;;;;;;;;;;4366635;32;20038;-76
2021/06/18 05:59:12;;;;;;;8.93;7.32;;;;;;;;;;4365485;32;20063;-76
2021/06/18 06:01:38;;;;;;;9.02;7.18;;;;;;;;;;4366253;32;20046;-76
2021/06/18 06:04:05;;;;;;;7.95;7.15;;;;;;;;;;4366722;32;20058;-78
2021/06/18 06:06:31;;;;;;;10.88;7.87;;;;;;;;;;4366617;32;20489;-76
2021/06/18 06:08:57;;;;;;;10.10;7.68;;;;;;;;;;4366336;32;20310;-77
2021/06/18 06:11:24;;;;;;;11.68;7.10;;;;;;;;;;4363337;32;20055;-77
2021/06/18 06:13:58;;;;;;;6.57;5.55;;;;;;;;;;4350595;33;20483;-77
2021/06/18 06:16:24;;;;;;;12.68;7.28;;;;;;;;;;4337301;33;20643;-78
2021/06/18 06:18:50;;;;;;;11.15;7.53;;;;;;;;;;4337772;33;20055;-77
2021/06/18 06:21:18;;;;;;;9.05;7.50;;;;;;;;;;4352273;32;20058;-78
2021/06/18 06:23:44;;;;;;;9.18;7.68;;;;;;;;;;4351009;32;20096;-79
2021/06/18 06:26:10;;;;;;;11.48;7.47;;;;;;;;;;4350620;32;20088;-76
2021/06/18 06:28:36;;;;;;;11.12;8.48;;;;;;;;;;4351863;32;20050;-79
2021/06/18 06:31:03;;;;;;;13.27;9.65;;;;;;;;;;4324043;33;20074;-80
2021/06/18 06:33:29;;;;;;;12.13;10.52;;;;;;;;;;4342024;32;20072;-81
2021/06/18 06:35:56;;;;;;;12.52;11.23;;;;;;;;;;4348612;32;20032;-79
2021/06/18 06:38:22;;;;;;;10.68;9.15;;;;;;;;;;4349304;32;20142;-81
2021/06/18 06:40:49;;;;;;;15.23;9.30;;;;;;;;;;4350006;32;20051;-81
2021/06/18 06:43:15;;;;;;;11.10;7.53;;;;;;;;;;4348256;32;20055;-79
2021/06/18 06:45:42;;;;;;;10.55;8.88;;;;;;;;;;4347802;32;20035;-81
2021/06/18 06:48:17;;;;;;;11.15;9.02;;;;;;;;;;4347566;32;20163;-83
2021/06/18 06:50:43;;;;;;;8.18;6.65;;;;;;;;;;4349243;32;20162;-83
2021/06/18 06:53:10;;;;;;;15.52;8.30;;;;;;;;;;4350108;32;20150;-82
2021/06/18 06:55:36;;;;;;;9.32;6.87;;;;;;;;;;4335579;33;20350;-79
2021/06/18 06:58:04;;;;;;;7.43;6.68;;;;;;;;;;4348771;32;21429;-81
2021/06/18 07:00:31;;;;;;;6.55;5.85;;;;;;;;;;4345244;33;20100;-81
2021/06/18 07:02:57;;;;;;;13.48;6.85;;;;;;;;;;4349852;32;20428;-82
2021/06/18 07:05:23;;;;;;;8.13;7.32;;;;;;;;;;4349757;32;20062;-82
2021/06/18 07:07:49;;;;;;;11.63;8.05;;;;;;;;;;4347391;32;20035;-83
2021/06/18 07:10:16;;;;;;;11.48;8.02;;;;;;;;;;4349805;32;20090;-83
2021/06/18 07:12:42;;;;;;;8.05;7.25;;;;;;;;;;4352693;32;20058;-83
2021/06/18 07:15:08;;;;;;;9.55;7.82;;;;;;;;;;4346357;32;20047;-81
2021/06/18 07:17:34;;;;;;;10.50;8.95;;;;;;;;;;4348656;32;20137;-82
2021/06/18 07:20:02;;;;;;;13.32;7.97;;;;;;;;;;4356420;32;20138;-81
2021/06/18 07:22:30;;;;;;;7.78;6.93;;;;;;;;;;4358289;32;20050;-83
2021/06/18 07:24:56;;;;;;;16.30;8.25;;;;;;;;;;4348111;32;20055;-85
2021/06/18 07:27:23;;;;;;;8.10;7.20;;;;;;;;;;4361231;32;20031;-83
2021/06/18 07:29:50;;;;;;;8.88;6.18;;;;;;;;;;4358061;32;20081;-86
2021/06/18 07:32:16;;;;;;;11.85;7.32;;;;;;;;;;4361732;32;20465;-81
2021/06/18 07:34:43;;;;;;;8.90;6.72;;;;;;;;;;4357219;32;20108;-82
2021/06/18 07:37:09;;;;;;;13.60;7.05;;;;;;;;;;4355241;32;20070;-82
2021/06/18 07:39:35;;;;;;;8.15;5.75;;;;;;;;;;4355782;32;20265;-79
2021/06/18 07:42:02;;;;;;;13.20;6.57;;;;;;;;;;4347592;32;20107;-79
2021/06/18 07:44:28;;;;;;;7.80;6.70;;;;;;;;;;4359009;32;20027;-79
2021/06/18 07:46:54;;;;;;;8.82;6.72;;;;;;;;;;4356405;32;20083;-78
2021/06/18 07:49:20;;;;;;;8.77;6.37;;;;;;;;;;4358331;32;20070;-78
2021/06/18 07:51:47;;;;;;;9.57;7.78;;;;;;;;;;4355860;32;20473;-81
2021/06/18 07:54:14;;;;;;;12.45;6.43;;;;;;;;;;4356300;32;20074;-83
2021/06/18 07:56:43;;;;;;;9.48;6.80;;;;;;;;;;4356890;32;20109;-84
2021/06/18 07:59:09;;;;;;;9.68;7.10;;;;;;;;;;4346193;32;20039;-82
2021/06/18 08:01:35;;;;;;;8.98;6.22;;;;;;;;;;4358390;32;20054;-82
2021/06/18 08:04:04;;;;;;;9.05;7.05;;;;;;;;;;4345098;32;20078;-83
2021/06/18 08:06:30;;;;;;;10.55;6.70;;;;;;;;;;4344253;32;20071;-79
2021/06/18 08:08:57;;;;;;;7.57;6.07;;;;;;;;;;4358302;32;20105;-80
2021/06/18 08:11:23;;;;;;;9.32;6.32;;;;;;;;;;4357646;32;20050;-81
2021/06/18 08:13:49;;;;;;;7.78;5.93;;;;;;;;;;4345418;32;20745;-82
2021/06/18 08:16:15;;;;;;;8.43;6.18;;;;;;;;;;4342418;32;20043;-81
2021/06/18 08:18:41;;;;;;;5.95;5.35;;;;;;;;;;4345283;32;20077;-81
2021/06/18 08:21:09;;;;;;;5.62;4.72;;;;;;;;;;4364426;32;20046;-81
2021/06/18 08:23:36;;;;;;;6.65;5.78;;;;;;;;;;4347817;32;20395;-81
2021/06/18 08:26:02;;;;;;;8.23;6.20;;;;;;;;;;4358415;32;20597;-81
2021/06/18 08:28:28;;;;;;;6.12;5.32;;;;;;;;;;4357342;32;20381;-81
2021/06/18 08:30:54;;;;;;;6.18;5.57;;;;;;;;;;4356256;32;20062;-81
2021/06/18 08:33:21;;;;;;;10.32;6.18;;;;;;;;;;4357254;32;20124;-81
2021/06/18 08:35:47;;;;;;;7.30;6.35;;;;;;;;;;4345113;32;20042;-80
2021/06/18 08:38:14;;;;;;;6.57;5.97;;;;;;;;;;4361761;32;20047;-80
2021/06/18 08:40:40;;;;;;;6.62;6.03;;;;;;;;;;4348893;32;20069;-80
2021/06/18 08:43:06;;;;;;;11.85;6.60;;;;;;;;;;4352656;32;20110;-80
2021/06/18 08:45:33;;;;;;;7.22;6.20;;;;;;;;;;4348434;32;20497;-81
2021/06/18 08:47:59;;;;;;;9.07;6.18;;;;;;;;;;4349359;32;20732;-80
2021/06/18 08:50:25;;;;;;;6.65;5.50;;;;;;;;;;4363240;32;20031;-80
2021/06/18 08:52:59;;;;;;;6.18;5.30;;;;;;;;;;4358211;32;20439;-82
2021/06/18 08:55:26;;;;;;;11.40;5.68;;;;;;;;;;4360153;32;20051;-80
2021/06/18 08:57:55;;;;;;;5.60;4.70;;;;;;;;;;4359271;32;20039;-83
2021/06/18 09:00:23;;;;;;;6.78;4.53;;;;;;;;;;4358144;32;20161;-80
2021/06/18 09:02:49;;;;;;;4.93;4.40;;;;;;;;;;4360748;32;20073;-81
2021/06/18 09:05:16;;;;;;;7.32;3.45;;;;;;;;;;4346673;32;20066;-80
2021/06/18 09:07:57;;;;;;;4.43;3.90;;;;;;;;;;4351652;32;20272;-81
2021/06/18 09:10:23;;;;;;;4.25;3.55;;;;;;;;;;4349322;32;20035;-79
2021/06/18 09:13:05;;;;;;;4.75;3.83;;;;;;;;;;4361823;32;20050;-84
2021/06/18 09:15:33;;;;;;;;;;;;;;;;;;4347568;32;20098;-86
2021/06/18 09:18:23;;;;;;;5.68;3.92;;;;;;;;;;4346044;32;19977;-85
2021/06/18 09:20:50;;;;;;;5.00;3.62;;;;;;;;;;4342862;32;20062;-85
2021/06/18 09:23:27;;;;;;;3.50;3.20;;;;;;;;;;4349073;32;20353;-80
2021/06/18 09:26:12;;;;;;;4.60;3.92;;;;;;;;;;4349884;32;20030;-84
2021/06/18 09:28:56;;;;;;;5.43;3.95;;;;;;;;;;4361310;32;20039;-86
2021/06/18 09:31:23;;;;;;;3.62;3.33;;;;;;;;;;4352630;32;20055;-86
2021/06/18 09:33:49;;;;;;;4.45;2.87;;;;;;;;;;4350021;33;20039;-82
2021/06/18 09:36:16;;;;;;;4.18;2.70;;;;;;;;;;4350405;32;20094;-86
2021/06/18 09:38:54;;;;;;;3.37;2.55;;;;;;;;;;4349155;32;20493;-88
2021/06/18 09:41:32;;;;;;;4.72;2.67;;;;;;;;;;4351179;32;20391;-85
2021/06/18 09:44:00;;;;;;;4.87;3.40;;;;;;;;;;4365121;32;20444;-82
2021/06/18 09:46:46;;;;;;;5.18;3.15;;;;;;;;;;4352054;32;20043;-86
2021/06/18 09:49:36;;;;;;;3.62;3.22;;;;;;;;;;4360713;32;20111;-83
2021/06/18 09:52:06;;;;;;;3.90;3.50;;;;;;;;;;4353730;32;20345;-89
2021/06/18 09:54:34;;;;;;;4.45;3.92;;;;;;;;;;4346265;32;20047;-88
2021/06/18 09:57:19;;;;;;;3.70;3.10;;;;;;;;;;4362811;32;20089;-87
2021/06/18 10:00:06;;;;;;;4.85;3.17;;;;;;;;;;4367205;32;20035;-88
2021/06/18 10:03:17;;;;;;;5.75;3.50;;;;;;;;;;4352874;32;20060;-82
2021/06/18 10:08:38;;;;;;;3.90;2.60;;;;;;;;;;4360309;32;20044;-81
2021/06/18 10:11:04;;;;;;;3.22;2.92;;;;;;;;;;4355918;32;20074;-80
2021/06/18 10:13:31;;;;;;;5.43;3.25;;;;;;;;;;4366783;32;20136;-80
2021/06/18 10:15:57;;;;;;;4.20;3.03;;;;;;;;;;4361941;32;20094;-89
2021/06/18 10:18:23;;;;;;;4.32;2.87;;;;;;;;;;4351910;32;20248;-86
2021/06/18 10:20:52;;;;;;;6.85;3.50;;;;;;;;;;4335258;32;20062;-80
2021/06/18 10:23:29;;;;;;;4.53;3.30;;;;;;;;;;4349997;33;20432;-86
2021/06/18 10:25:59;;;;;;;6.40;3.45;;;;;;;;;;4350878;32;20070;-80
2021/06/18 10:28:29;;;;;;;3.85;3.55;;;;;;;;;;4346153;33;20040;-90
2021/06/18 10:31:12;;;;;;;4.25;3.35;;;;;;;;;;4359137;32;20071;-86
2021/06/18 10:34:02;;;;;;;3.25;2.95;;;;;;;;;;4346157;32;20100;-88
2021/06/18 10:36:47;;;;;;;3.95;3.40;;;;;;;;;;4349496;32;20084;-88
2021/06/18 10:39:17;;;;;;;3.75;2.92;;;;;;;;;;4363699;32;20423;-87
2021/06/18 10:41:45;;;;;;;3.53;3.15;;;;;;;;;;4351278;32;20050;-88
2021/06/18 10:44:12;;;;;;;4.20;3.17;;;;;;;;;;4352061;32;20062;-83
2021/06/18 10:46:43;;;;;;;3.58;3.22;;;;;;;;;;4347616;32;20690;-86
2021/06/18 10:49:25;;;;;;;;;;;;;;;;;;;;;
2021/06/18 10:52:14;;;;;;;4.15;3.80;;;;;;;;;;4368604;32;20047;-90
2021/06/18 10:55:04;;;;;;;5.50;3.50;;;;;;;;;;4352144;32;20069;-85
2021/06/18 10:57:30;;;;;;;7.47;3.83;;;;;;;;;;4336911;32;20036;-82
2021/06/18 11:00:20;;;;;;;4.03;3.40;;;;;;;;;;4344319;32;20065;-82
2021/06/18 11:02:46;;;;;;;3.60;3.30;;;;;;;;;;4351176;32;20114;-80
2021/06/18 11:05:16;;;;;;;5.75;3.75;;;;;;;;;;4343568;32;20061;-83
2021/06/18 11:07:42;;;;;;;3.72;3.22;;;;;;;;;;4355120;32;20096;-81
2021/06/18 11:10:13;;;;;;;4.70;3.70;;;;;;;;;;4351148;32;20089;-85
2021/06/18 11:12:46;;;;;;;3.25;2.95;;;;;;;;;;4349995;32;20482;-84
2021/06/18 11:15:24;;;;;;;6.87;3.62;;;;;;;;;;4348257;32;20040;-87
2021/06/18 11:18:00;;;;;;;4.90;3.78;;;;;;;;;;4346950;32;20054;-85
2021/06/18 11:20:35;;;;;;;6.72;3.92;;;;;;;;;;4348276;32;20088;-81
2021/06/18 11:23:20;;;;;;;6.05;3.85;;;;;;;;;;4360792;32;20146;-85
2021/06/18 11:25:49;;;;;;;5.97;3.50;;;;;;;;;;4347338;32;20535;-87
2021/06/18 11:28:22;;;;;;;5.40;4.20;;;;;;;;;;4366331;32;20663;-86
2021/06/18 11:30:51;;;;;;;4.53;4.12;;;;;;;;;;4349969;32;20044;-84
2021/06/18 11:33:36;;;;;;;4.80;3.92;;;;;;;;;;4350554;32;20047;-84
2021/06/18 11:36:06;;;;;;;7.55;4.37;;;;;;;;;;4360063;32;20035;-80
2021/06/18 11:38:32;;;;;;;5.72;3.80;;;;;;;;;;4339821;32;20066;-81
2021/06/18 11:41:00;;;;;;;7.45;4.05;;;;;;;;;;4349065;32;20442;-83
2021/06/18 11:43:30;;;;;;;4.57;3.80;;;;;;;;;;4350985;32;20023;-84
2021/06/18 11:45:57;;;;;;;4.40;4.00;;;;;;;;;;4348101;32;20043;-84
2021/06/18 11:48:23;;;;;;;6.20;4.05;;;;;;;;;;4350035;32;20459;-82
2021/06/18 11:50:49;;;;;;;6.12;4.40;;;;;;;;;;4344869;32;20043;-82
2021/06/18 11:53:17;;;;;;;6.25;4.55;;;;;;;;;;4358729;32;20101;-81
2021/06/18 11:55:43;;;;;;;4.70;4.30;;;;;;;;;;4347696;32;20432;-81
2021/06/18 11:58:28;;;;;;;5.75;4.03;;;;;;;;;;4345342;32;20506;-84
2021/06/18 12:01:10;;;;;;;6.03;4.05;;;;;;;;;;4350335;32;20039;-87
2021/06/18 12:03:38;;;;;;;4.37;4.07;;;;;;;;;;4338202;32;20113;-86
2021/06/18 12:06:33;;;;;;;4.60;4.20;;;;;;;;;;4352538;32;20032;-85
2021/06/18 12:09:15;;;;;;;4.57;4.18;;;;;;;;;;4365656;32;20118;-83
2021/06/18 12:11:43;;;;;;;4.55;3.60;;;;;;;;;;4351646;32;20104;-85
2021/06/18 12:14:16;;;;;;;4.25;3.40;;;;;;;;;;4358299;32;20061;-84
2021/06/18 12:16:49;;;;;;;4.75;4.35;;;;;;;;;;4348287;32;20035;-85
2021/06/18 12:19:21;;;;;;;4.40;4.00;;;;;;;;;;4361473;32;20038;-86
2021/06/18 12:22:07;;;;;;;4.75;4.25;;;;;;;;;;4346370;32;20426;-83
2021/06/18 12:24:38;;;;;;;4.78;4.10;;;;;;;;;;4348846;32;20113;-82
2021/06/18 12:27:50;;;;;;;;;;;;;;;;;;;;;
2021/06/18 12:36:43;;;;;;;4.87;3.80;;;;;;;;;;4351086;32;20446;-85
2021/06/18 12:45:39;;;;;;;9.15;4.10;;;;;;;;;;4329197;33;20107;-86
2021/06/18 12:48:49;;;;;;;3.17;2.87;;;;;;;;;;4327641;33;20135;-86
2021/06/18 12:51:59;;;;;;;;;;;;;;;;;;;;;
2021/06/18 12:57:37;;;;;;;6.50;3.62;;;;;;;;;;4296740;33;20139;-86
2021/06/18 13:00:09;;;;;;;3.60;3.30;;;;;;;;;;4308636;33;20672;-86
2021/06/18 13:02:35;;;;;;;;;;;;;;;;;;4337603;32;20039;-86
2021/06/18 13:05:22;;;;;;;4.05;3.28;;;;;;;;;;4349418;32;20000;-83
2021/06/18 13:07:49;;;;;;;3.92;3.50;;;;;;;;;;4349803;32;20177;-84
2021/06/18 13:10:18;;;;;;;5.70;3.55;;;;;;;;;;4341526;32;20043;-84
2021/06/18 13:12:55;;;;;;;4.70;3.80;;;;;;;;;;4354730;32;20062;-84
2021/06/18 13:15:47;;;;;;;3.22;3.03;;;;;;;;;;4343815;32;20063;-86
2021/06/18 13:18:16;;;;;;;3.78;3.47;;;;;;;;;;4334526;32;20465;-87
2021/06/18 13:20:45;;;;;;;3.90;3.60;;;;;;;;;;4343914;32;20181;-85
2021/06/18 13:23:28;;;;;;;4.15;3.80;;;;;;;;;;4347216;32;20070;-86
2021/06/18 13:26:07;;;;;;;3.95;3.50;;;;;;;;;;4349621;32;20078;-85
2021/06/18 13:28:42;;;;;;;3.87;3.50;;;;;;;;;;4353054;32;20423;-84
2021/06/18 13:31:17;;;;;;;3.35;2.83;;;;;;;;;;4353019;32;20467;-87
2021/06/18 13:33:53;;;;;;;4.32;3.17;;;;;;;;;;4363367;32;20069;-86
2021/06/18 13:36:29;;;;;;;3.85;3.40;;;;;;;;;;4352960;32;20035;-86
2021/06/18 13:39:06;;;;;;;4.22;3.45;;;;;;;;;;4350750;32;20061;-86
2021/06/18 13:41:38;;;;;;;5.10;2.83;;;;;;;;;;4351073;32;20039;-86
2021/06/18 13:47:00;;;;;;;3.47;2.50;;;;;;;;;;4354705;32;20054;-78
2021/06/18 13:49:26;;;;;;;5.10;2.42;;;;;;;;;;4361047;32;20031;-77
2021/06/18 13:51:53;;;;;;;3.00;2.40;;;;;;;;;;4361899;32;20414;-78
2021/06/18 13:54:19;;;;;;;4.55;3.25;;;;;;;;;;4361626;32;20100;-78
2021/06/18 13:56:45;;;;;;;2.62;2.42;;;;;;;;;;4365802;32;20050;-78
2021/06/18 13:59:11;;;;;;;4.37;3.20;;;;;;;;;;4345343;32;20448;-77
2021/06/18 14:01:38;;;;;;;3.67;2.70;;;;;;;;;;4345232;32;20078;-79
2021/06/18 14:04:06;;;;;;;7.37;3.50;;;;;;;;;;4363340;32;20050;-82
2021/06/18 14:06:32;;;;;;;3.40;3.10;;;;;;;;;;4364644;32;20347;-77
2021/06/18 14:08:59;;;;;;;4.05;2.83;;;;;;;;;;4365049;32;20034;-77
2021/06/18 14:11:26;;;;;;;3.55;2.97;;;;;;;;;;4364582;32;20031;-77
2021/06/18 14:13:55;;;;;;;4.50;3.22;;;;;;;;;;4364735;32;20121;-78
2021/06/18 14:16:22;;;;;;;3.33;3.00;;;;;;;;;;4363736;32;20077;-78
2021/06/18 14:18:48;;;;;;;3.80;3.08;;;;;;;;;;4364639;32;20031;-77
2021/06/18 14:21:14;;;;;;;3.92;3.35;;;;;;;;;;4364040;32;20035;-77
2021/06/18 14:23:40;;;;;;;9.07;4.35;;;;;;;;;;4363520;32;20034;-78
2021/06/18 14:26:06;;;;;;;6.87;3.92;;;;;;;;;;4364051;32;20104;-80
2021/06/18 14:28:32;;;;;;;4.22;3.92;;;;;;;;;;4364915;32;20053;-77
2021/06/18 14:30:59;;;;;;;12.25;4.50;;;;;;;;;;4364487;32;20061;-78
2021/06/18 14:33:25;;;;;;;5.75;4.10;;;;;;;;;;4348184;32;20101;-78
2021/06/18 14:35:52;;;;;;;5.70;3.15;;;;;;;;;;4360405;32;20073;-78
2021/06/18 14:38:18;;;;;;;4.12;3.70;;;;;;;;;;4359701;32;20027;-77
2021/06/18 14:40:45;;;;;;;4.00;3.70;;;;;;;;;;4364504;32;20031;-79
2021/06/18 14:43:11;;;;;;;4.00;3.70;;;;;;;;;;4364170;32;20082;-78
2021/06/18 14:45:37;;;;;;;5.65;3.90;;;;;;;;;;4364830;32;20077;-78
2021/06/18 14:48:04;;;;;;;4.95;4.45;;;;;;;;;;4364681;32;20035;-78
2021/06/18 14:50:30;;;;;;;5.40;4.90;;;;;;;;;;4363220;32;20473;-77
2021/06/18 14:52:57;;;;;;;4.10;3.70;;;;;;;;;;4345328;32;20031;-77
2021/06/18 14:55:23;;;;;;;5.85;4.15;;;;;;;;;;4347278;32;185273;-78
2021/06/18 14:57:49;;;;;;;4.47;4.10;;;;;;;;;;4364466;32;20511;-77
2021/06/18 15:00:16;;;;;;;4.85;4.47;;;;;;;;;;4358618;32;20403;-77
2021/06/18 15:02:44;;;;;;;5.05;4.65;;;;;;;;;;4363923;32;20088;-78
2021/06/18 15:05:15;;;;;;;6.62;4.72;;;;;;;;;;4359758;32;20085;-78
2021/06/18 15:07:41;;;;;;;5.47;4.97;;;;;;;;;;4354030;32;20430;-79
2021/06/18 15:10:08;;;;;;;7.28;5.20;;;;;;;;;;4364921;32;20080;-81
2021/06/18 15:12:34;;;;;;;5.80;5.30;;;;;;;;;;4365041;32;20153;-81
2021/06/18 15:15:00;;;;;;;5.22;4.55;;;;;;;;;;4363122;32;20047;-79
2021/06/18 15:17:27;;;;;;;6.45;5.18;;;;;;;;;;4364470;32;20058;-81
2021/06/18 15:19:53;;;;;;;5.00;4.50;;;;;;;;;;4365024;32;20031;-80